This is the latest recevied weather packets stored in our database for station/object KA7KDX-4. If no packets are shown the sender has not sent any weather packets the latest 1 day(s).
| Time | Temp. | Humidity | Pressure | Rain* | Wind** | Luminosity | Snow |
|---|---|---|---|---|---|---|---|
| 1778039406 | 12.78° C | 53% | 1006.7 hPa | 0 mm | - | - | - |
| 1778039106 | 12.78° C | 52% | 1006.5 hPa | 0 mm | - | - | - |
| 1778038806 | 13.33° C | 52% | 1006.3 hPa | 0 mm | - | - | - |
| 1778037006 | 13.33° C | 51% | 1006.2 hPa | 0 mm | - | - | - |
| 1778036706 | 13.33° C | 51% | 1006.1 hPa | 0 mm | - | - | - |
| 1778036406 | 13.89° C | 50% | 1005.9 hPa | 0 mm | - | - | - |
| 1778036106 | 13.89° C | 50% | 1005.8 hPa | 0 mm | - | - | - |
| 1778035806 | 13.89° C | 52% | 1005.8 hPa | 0 mm | - | - | - |
| 1778034305 | 16.11° C | 44% | 1004.1 hPa | 0 mm | - | - | - |
| 1778033706 | 16.67° C | 43% | 1003.8 hPa | 0 mm | - | - | - |
| 1778033406 | 16.67° C | 42% | 1003.7 hPa | 0 mm | - | - | - |
| 1778032806 | 16.67° C | 42% | 1003.7 hPa | 0 mm | - | - | - |
| 1778031605 | 16.67° C | 42% | 1003.6 hPa | 0 mm | - | - | - |
| 1778031305 | 17.22° C | 41% | 1003.5 hPa | 0.25 mm | - | - | - |
| 1778031006 | 17.22° C | 41% | 1003.5 hPa | 0.25 mm | - | - | - |
| 1778030706 | 17.22° C | 41% | 1003.5 hPa | 0.25 mm | - | - | - |
| 1778030406 | 17.22° C | 41% | 1003.4 hPa | 0 mm | - | - | - |
| 1778028306 | 17.78° C | 40% | 1003.1 hPa | 0 mm | - | - | - |
| 1778028006 | 17.78° C | 40% | 1003 hPa | 0 mm | - | - | - |
| 1778027706 | 17.78° C | 39% | 1003 hPa | 0 mm | - | - | - |
| 1778027406 | 17.78° C | 38% | 1002.9 hPa | 0 mm | - | - | - |
| 1778027106 | 17.78° C | 39% | 1002.8 hPa | 0 mm | - | - | - |
| 1778025306 | 17.78° C | 37% | 1002.8 hPa | 0 mm | - | - | - |
| 1778025006 | 18.33° C | 37% | 1002.7 hPa | 0 mm | - | - | - |
| 1778024706 | 17.78° C | 37% | 1002.7 hPa | 0 mm | - | - | - |
* Rain latest hour (hover to see other rain measurements)
** Current wind speed in m/s (hover to see current wind gust speed)